createdAt,value
2022-08-18T00:01:06.750Z,100.00
2022-08-18T00:03:57.200Z,100.00
2022-08-18T00:06:20.728Z,100.00
2022-08-18T00:08:47.243Z,100.00
2022-08-18T00:11:13.711Z,100.00
2022-08-18T00:13:40.192Z,100.00
2022-08-18T00:16:07.001Z,100.00
2022-08-18T00:18:33.562Z,100.00
2022-08-18T00:21:00.227Z,100.00
2022-08-18T00:23:28.775Z,100.00
2022-08-18T00:25:57.646Z,100.00
2022-08-18T00:28:25.974Z,100.00
2022-08-18T00:30:54.224Z,100.00
2022-08-18T00:33:21.265Z,100.00
2022-08-18T00:35:48.035Z,100.00
2022-08-18T00:38:23.584Z,100.00
2022-08-18T00:40:53.979Z,100.00
2022-08-18T00:43:47.367Z,100.00
2022-08-18T00:46:23.687Z,100.00
2022-08-18T00:48:50.347Z,100.00
2022-08-18T00:51:23.508Z,100.00
2022-08-18T00:54:09.437Z,100.00
2022-08-18T00:56:41.630Z,100.00
2022-08-18T00:59:14.390Z,100.00
2022-08-18T01:01:43.380Z,100.00
2022-08-18T01:04:20.574Z,100.00
2022-08-18T01:06:53.555Z,100.00
2022-08-18T01:09:20.335Z,100.00
2022-08-18T01:11:47.134Z,100.00
2022-08-18T01:14:16.115Z,100.00
2022-08-18T01:17:02.567Z,100.00
2022-08-18T01:19:48.662Z,100.00
2022-08-18T01:22:25.513Z,100.00
2022-08-18T01:25:13.716Z,100.00
2022-08-18T01:27:41.873Z,100.00
2022-08-18T01:30:15.217Z,100.00
2022-08-18T01:32:45.895Z,100.00
2022-08-18T01:35:15.346Z,100.00
2022-08-18T01:37:42.340Z,100.00
2022-08-18T01:41:27.332Z,100.00
2022-08-18T01:42:58.141Z,100.00
2022-08-18T01:45:24.832Z,100.00
2022-08-18T01:47:51.360Z,100.00
2022-08-18T01:50:18.226Z,100.00
2022-08-18T01:52:45.166Z,100.00
2022-08-18T01:55:11.761Z,100.00
2022-08-18T01:57:44.939Z,100.00
2022-08-18T02:00:14.960Z,100.00
2022-08-18T02:02:42.063Z,100.00
2022-08-18T02:05:16.802Z,100.00
2022-08-18T02:07:44.556Z,100.00
2022-08-18T02:10:12.503Z,100.00
2022-08-18T02:12:43.039Z,100.00
2022-08-18T02:15:10.626Z,100.00
2022-08-18T02:17:42.108Z,100.00
2022-08-18T02:20:11.011Z,100.00
2022-08-18T02:22:38.245Z,100.00
2022-08-18T02:25:05.155Z,100.00
2022-08-18T02:27:34.186Z,100.00
2022-08-18T02:30:02.618Z,100.00
2022-08-18T02:32:29.397Z,100.00
2022-08-18T02:34:56.316Z,100.00
2022-08-18T02:37:23.023Z,100.00
2022-08-18T02:39:49.984Z,100.00
2022-08-18T02:42:16.754Z,100.00
2022-08-18T02:44:43.379Z,100.00
2022-08-18T02:47:10.597Z,100.00
2022-08-18T02:49:37.263Z,100.00
2022-08-18T02:52:04.222Z,100.00
2022-08-18T02:54:30.853Z,100.00
2022-08-18T02:56:57.556Z,100.00
2022-08-18T02:59:27.707Z,100.00
2022-08-18T03:01:56.211Z,100.00
2022-08-18T03:04:29.455Z,100.00
2022-08-18T03:06:58.721Z,100.00
2022-08-18T03:09:25.620Z,100.00
2022-08-18T03:11:53.431Z,100.00
2022-08-18T03:14:20.019Z,100.00
2022-08-18T03:16:53.355Z,100.00
2022-08-18T03:19:29.360Z,100.00
2022-08-18T03:21:59.427Z,100.00
2022-08-18T03:24:29.549Z,100.00
2022-08-18T03:26:57.240Z,100.00
2022-08-18T03:29:29.258Z,100.00
2022-08-18T03:31:58.844Z,100.00
2022-08-18T03:34:25.535Z,100.00
2022-08-18T03:36:52.171Z,100.00
2022-08-18T03:39:20.096Z,100.00
2022-08-18T03:41:59.809Z,100.00
2022-08-18T03:44:31.039Z,100.00
2022-08-18T03:46:58.032Z,100.00
2022-08-18T03:49:25.072Z,100.00
2022-08-18T03:51:51.734Z,100.00
2022-08-18T03:54:18.920Z,100.00
2022-08-18T03:56:47.397Z,100.00
2022-08-18T03:59:19.851Z,100.00
2022-08-18T04:01:47.964Z,100.00
2022-08-18T04:04:17.703Z,100.00
2022-08-18T04:06:50.283Z,100.00
2022-08-18T04:09:18.439Z,100.00
2022-08-18T04:11:45.901Z,100.00
2022-08-18T04:14:14.568Z,100.00
2022-08-18T04:16:41.750Z,100.00
2022-08-18T04:19:09.299Z,100.00
2022-08-18T04:21:39.314Z,100.00
2022-08-18T04:24:07.350Z,100.00
2022-08-18T04:26:36.800Z,100.00
2022-08-18T04:29:05.260Z,100.00
2022-08-18T04:31:32.120Z,100.00
2022-08-18T04:34:00.617Z,100.00
2022-08-18T04:36:29.046Z,100.00
2022-08-18T04:38:56.685Z,100.00
2022-08-18T04:41:27.423Z,100.00
2022-08-18T04:43:57.486Z,100.00
2022-08-18T04:46:25.024Z,100.00
2022-08-18T04:48:52.325Z,100.00
2022-08-18T04:52:37.600Z,100.00
2022-08-18T04:54:06.615Z,100.00
2022-08-18T04:56:36.786Z,100.00
2022-08-18T04:59:06.280Z,100.00
2022-08-18T05:01:39.481Z,100.00
2022-08-18T05:04:06.631Z,100.00
2022-08-18T05:06:33.396Z,100.00
2022-08-18T05:09:03.700Z,100.00
2022-08-18T05:11:35.111Z,100.00
2022-08-18T05:14:04.052Z,100.00
2022-08-18T05:16:36.368Z,100.00
2022-08-18T05:19:16.646Z,100.00
2022-08-18T05:21:47.082Z,100.00
2022-08-18T05:24:18.356Z,100.00
2022-08-18T05:26:45.398Z,100.00
2022-08-18T05:29:18.506Z,100.00
2022-08-18T05:31:47.078Z,100.00
2022-08-18T05:34:13.663Z,100.00
2022-08-18T05:36:49.260Z,100.00
2022-08-18T05:39:45.090Z,100.00
2022-08-18T05:42:18.814Z,100.00
2022-08-18T05:44:49.431Z,100.00
2022-08-18T05:47:29.714Z,100.00
2022-08-18T05:50:02.593Z,100.00
2022-08-18T05:52:33.183Z,100.00
2022-08-18T05:55:27.448Z,100.00
2022-08-18T05:57:59.713Z,100.00
2022-08-18T06:00:27.371Z,100.00
2022-08-18T06:03:02.212Z,100.00
2022-08-18T06:05:34.844Z,100.00
2022-08-18T06:08:22.570Z,100.00
2022-08-18T06:10:51.200Z,100.00
2022-08-18T06:13:20.055Z,100.00
2022-08-18T06:15:58.773Z,100.00
2022-08-18T06:18:51.685Z,100.00
2022-08-18T06:21:18.178Z,100.00
2022-08-18T06:24:02.520Z,100.00
2022-08-18T06:26:45.255Z,100.00
2022-08-18T06:29:44.391Z,100.00
2022-08-18T06:32:35.586Z,100.00
2022-08-18T06:35:11.324Z,100.00
2022-08-18T06:38:45.426Z,100.00
2022-08-18T06:41:42.263Z,100.00
2022-08-18T06:44:20.069Z,100.00
2022-08-18T06:47:04.203Z,100.00
2022-08-18T06:50:05.715Z,100.00
2022-08-18T06:52:38.693Z,100.00
2022-08-18T06:55:09.390Z,100.00
2022-08-18T06:57:39.791Z,100.00
2022-08-18T07:00:22.316Z,100.00
2022-08-18T07:02:51.388Z,100.00
2022-08-18T07:05:27.067Z,100.00
2022-08-18T07:08:14.442Z,100.00
2022-08-18T07:10:46.872Z,100.00
2022-08-18T07:13:13.304Z,100.00
2022-08-18T07:15:40.689Z,100.00
2022-08-18T07:18:08.705Z,100.00
2022-08-18T07:20:44.507Z,100.00
2022-08-18T07:23:25.456Z,100.00
2022-08-18T07:26:02.490Z,100.00
2022-08-18T07:28:52.007Z,100.00
2022-08-18T07:31:27.338Z,100.00
2022-08-18T07:34:09.090Z,100.00
2022-08-18T07:36:43.690Z,100.00
2022-08-18T07:39:32.127Z,100.00
2022-08-18T07:42:14.679Z,100.00
2022-08-18T07:45:12.701Z,100.00
2022-08-18T07:47:50.083Z,100.00
2022-08-18T07:50:36.341Z,100.00
2022-08-18T07:53:33.743Z,100.00
2022-08-18T07:56:14.929Z,100.00
2022-08-18T07:58:54.307Z,100.00
2022-08-18T08:01:24.358Z,100.00
2022-08-18T08:04:25.744Z,100.00
2022-08-18T08:07:26.238Z,100.00
2022-08-18T08:10:14.211Z,100.00
2022-08-18T08:12:41.144Z,100.00
2022-08-18T08:15:26.694Z,100.00
2022-08-18T08:18:23.087Z,100.00
2022-08-18T08:20:56.050Z,100.00
2022-08-18T08:24:18.075Z,100.00
2022-08-18T08:27:00.223Z,100.00
2022-08-18T08:29:47.511Z,100.00
2022-08-18T08:32:30.942Z,100.00
2022-08-18T08:35:47.246Z,100.00
2022-08-18T08:38:39.344Z,100.00
2022-08-18T08:41:15.858Z,100.00
2022-08-18T08:43:47.808Z,100.00
2022-08-18T08:46:25.225Z,100.00
2022-08-18T08:49:09.429Z,100.00
2022-08-18T08:51:49.038Z,100.00
2022-08-18T08:54:52.276Z,100.00
2022-08-18T08:57:25.121Z,100.00
2022-08-18T08:59:52.255Z,100.00
2022-08-18T09:02:48.330Z,100.00
2022-08-18T09:05:28.390Z,100.00
2022-08-18T09:08:19.777Z,100.00
2022-08-18T09:10:52.293Z,100.00
2022-08-18T09:13:39.278Z,100.00
2022-08-18T09:16:14.621Z,100.00
2022-08-18T09:18:53.237Z,100.00
2022-08-18T09:21:40.381Z,100.00
2022-08-18T09:24:28.963Z,100.00
2022-08-18T09:27:04.464Z,100.00
2022-08-18T09:29:37.109Z,100.00
2022-08-18T09:32:23.944Z,100.00
2022-08-18T09:35:02.806Z,100.00
2022-08-18T09:38:13.093Z,100.00
2022-08-18T09:41:24.460Z,100.00
2022-08-18T09:47:00.014Z,100.00
2022-08-18T09:49:26.917Z,100.00
2022-08-18T09:50:37.283Z,100.00
2022-08-18T09:51:58.719Z,100.00
2022-08-18T09:54:29.555Z,100.00
2022-08-18T09:57:04.174Z,100.00
2022-08-18T09:59:35.122Z,100.00
2022-08-18T10:02:18.838Z,100.00
2022-08-18T10:05:20.005Z,100.00
2022-08-18T10:07:48.816Z,100.00
2022-08-18T10:11:02.356Z,100.00
2022-08-18T10:16:57.699Z,100.00
2022-08-18T10:19:39.592Z,100.00
2022-08-18T10:22:09.376Z,100.00
2022-08-18T10:24:56.531Z,100.00
2022-08-18T10:27:42.820Z,100.00
2022-08-18T10:30:34.270Z,100.00
2022-08-18T10:33:17.702Z,100.00
2022-08-18T10:36:01.012Z,100.00
2022-08-18T10:38:41.184Z,100.00
2022-08-18T10:41:21.473Z,100.00
2022-08-18T10:43:57.421Z,100.00
2022-08-18T10:46:30.820Z,100.00
2022-08-18T10:49:18.286Z,98.26
2022-08-18T10:51:59.519Z,95.92
2022-08-18T10:54:51.989Z,95.86
2022-08-18T10:58:01.190Z,92.84
2022-08-18T11:00:47.308Z,92.06
2022-08-18T11:03:51.634Z,92.79
2022-08-18T11:06:26.821Z,90.58
2022-08-18T11:08:57.862Z,89.88
2022-08-18T11:14:51.085Z,88.07
2022-08-18T11:17:22.361Z,86.98
2022-08-18T11:19:52.806Z,86.37
2022-08-18T11:22:32.280Z,85.32
2022-08-18T11:25:00.813Z,81.86
2022-08-18T11:27:35.285Z,80.21
2022-08-18T11:30:05.328Z,79.82
2022-08-18T11:32:39.419Z,77.55
2022-08-18T11:35:45.558Z,75.05
2022-08-18T11:41:20.000Z,70.36
2022-08-18T11:43:50.876Z,71.42
2022-08-18T11:46:24.058Z,72.74
2022-08-18T11:48:56.924Z,74.48
2022-08-18T11:51:27.954Z,73.30
2022-08-18T11:53:58.938Z,72.80
2022-08-18T11:56:35.672Z,73.14
2022-08-18T11:59:52.183Z,69.91
2022-08-18T12:02:21.135Z,69.21
2022-08-18T12:05:03.001Z,67.31
2022-08-18T12:07:37.083Z,63.52
2022-08-18T12:10:28.931Z,65.71
2022-08-18T12:13:00.281Z,64.77
2022-08-18T12:15:46.251Z,63.72
2022-08-18T12:18:26.420Z,63.07
2022-08-18T12:20:56.733Z,64.55
2022-08-18T12:23:24.022Z,61.50
2022-08-18T12:25:51.603Z,63.63
2022-08-18T12:28:19.706Z,62.63
2022-08-18T12:30:49.287Z,64.70
2022-08-18T12:33:25.431Z,64.55
2022-08-18T12:35:52.625Z,64.60
2022-08-18T12:38:19.181Z,65.35
2022-08-18T12:40:45.718Z,63.97
2022-08-18T12:43:12.431Z,64.01
2022-08-18T12:45:40.017Z,63.58
2022-08-18T12:48:08.135Z,63.76
2022-08-18T12:50:49.837Z,62.30
2022-08-18T12:53:29.920Z,63.11
2022-08-18T12:56:08.659Z,63.15
2022-08-18T12:58:38.236Z,63.13
2022-08-18T13:01:07.262Z,61.83
2022-08-18T13:03:35.315Z,62.94
2022-08-18T13:06:04.548Z,63.21
2022-08-18T13:08:38.103Z,63.32
2022-08-18T13:11:15.094Z,61.88
2022-08-18T13:13:48.395Z,60.42
2022-08-18T13:16:30.785Z,59.79
2022-08-18T13:19:10.934Z,59.01
2022-08-18T13:21:41.138Z,58.21
2022-08-18T13:24:09.334Z,54.26
2022-08-18T13:26:39.988Z,55.17
2022-08-18T13:29:10.039Z,55.90
2022-08-18T13:31:38.079Z,54.93
2022-08-18T13:34:11.557Z,54.14
2022-08-18T13:36:45.958Z,50.60
2022-08-18T13:39:21.974Z,53.55
2022-08-18T13:41:52.102Z,54.90
2022-08-18T13:44:21.175Z,52.96
2022-08-18T13:46:49.258Z,52.38
2022-08-18T13:49:18.653Z,52.79
2022-08-18T13:51:56.545Z,51.84
2022-08-18T13:54:31.391Z,52.01
2022-08-18T13:56:58.693Z,49.76
2022-08-18T13:59:31.416Z,47.78
2022-08-18T14:01:59.608Z,50.16
2022-08-18T14:04:28.019Z,47.47
2022-08-18T14:06:57.230Z,48.06
2022-08-18T14:09:36.271Z,45.79
2022-08-18T14:12:22.937Z,46.98
2022-08-18T14:14:54.470Z,44.42
2022-08-18T14:17:26.999Z,43.68
2022-08-18T14:20:15.346Z,44.46
2022-08-18T14:23:14.211Z,43.30
2022-08-18T14:26:09.315Z,44.03
2022-08-18T14:28:35.857Z,42.57
2022-08-18T14:31:07.149Z,40.92
2022-08-18T14:33:50.772Z,40.61
2022-08-18T14:36:19.964Z,38.63
2022-08-18T14:38:46.489Z,38.64
2022-08-18T14:41:19.010Z,36.96
2022-08-18T14:44:10.305Z,37.64
2022-08-18T14:46:33.269Z,36.80
2022-08-18T14:49:03.994Z,35.52
2022-08-18T14:51:33.446Z,35.86
2022-08-18T14:54:00.843Z,36.35
2022-08-18T14:56:29.547Z,37.26
2022-08-18T14:58:56.289Z,37.46
2022-08-18T15:01:24.420Z,36.11
2022-08-18T15:03:51.175Z,36.39
2022-08-18T15:06:20.296Z,36.18
2022-08-18T15:08:49.742Z,36.66
2022-08-18T15:11:16.982Z,35.78
2022-08-18T15:13:46.505Z,36.67
2022-08-18T15:16:15.127Z,37.10
2022-08-18T15:18:43.861Z,37.33
2022-08-18T15:21:35.745Z,36.93
2022-08-18T15:24:23.873Z,37.13
2022-08-18T15:26:58.246Z,37.54
2022-08-18T15:29:32.542Z,38.69
2022-08-18T15:32:05.535Z,39.98
2022-08-18T15:34:33.468Z,40.64
2022-08-18T15:37:15.206Z,40.69
2022-08-18T15:39:41.746Z,40.62
2022-08-18T15:42:11.956Z,40.48
2022-08-18T15:44:40.123Z,40.78
2022-08-18T15:47:11.400Z,40.86
2022-08-18T15:49:38.545Z,41.05
2022-08-18T15:52:05.101Z,41.49
2022-08-18T15:54:31.653Z,42.96
2022-08-18T15:56:58.843Z,43.52
2022-08-18T15:59:34.332Z,43.81
2022-08-18T16:02:07.036Z,44.61
2022-08-18T16:04:40.982Z,44.21
2022-08-18T16:07:07.759Z,45.03
2022-08-18T16:09:36.839Z,45.19
2022-08-18T16:12:03.708Z,44.61
2022-08-18T16:14:30.371Z,44.59
2022-08-18T16:16:56.893Z,44.78
2022-08-18T16:19:25.713Z,44.73
2022-08-18T16:21:56.611Z,45.34
2022-08-18T16:24:23.679Z,45.90
2022-08-18T16:26:51.988Z,46.66
2022-08-18T16:29:19.298Z,48.04
2022-08-18T16:31:46.467Z,48.63
2022-08-18T16:34:13.104Z,48.96
2022-08-18T16:36:39.571Z,50.40
2022-08-18T16:39:06.429Z,50.04
2022-08-18T16:41:33.652Z,50.90
2022-08-18T16:44:00.548Z,52.09
2022-08-18T16:46:28.296Z,53.16
2022-08-18T16:48:56.890Z,52.24
2022-08-18T16:51:25.848Z,51.74
2022-08-18T16:53:54.397Z,52.86
2022-08-18T16:56:23.984Z,52.58
2022-08-18T16:59:09.953Z,52.24
2022-08-18T17:01:56.012Z,52.03
2022-08-18T17:04:25.874Z,52.16
2022-08-18T17:06:52.613Z,52.16
2022-08-18T17:09:20.153Z,52.81
2022-08-18T17:11:51.215Z,52.40
2022-08-18T17:14:21.088Z,52.58
2022-08-18T17:16:49.378Z,52.19
2022-08-18T17:19:15.886Z,52.48
2022-08-18T17:21:43.078Z,52.87
2022-08-18T17:24:11.336Z,52.12
2022-08-18T17:27:20.367Z,50.70
2022-08-18T17:30:19.403Z,50.43
2022-08-18T17:32:53.845Z,50.39
2022-08-18T17:35:23.487Z,50.48
2022-08-18T17:38:00.831Z,50.72
2022-08-18T17:40:39.326Z,51.27
2022-08-18T17:43:17.682Z,50.78
2022-08-18T17:45:48.527Z,50.88
2022-08-18T17:48:23.812Z,51.06
2022-08-18T17:51:28.368Z,52.04
2022-08-18T17:53:54.998Z,52.14
2022-08-18T17:56:35.290Z,52.51
2022-08-18T17:59:45.485Z,52.67
2022-08-18T18:02:18.448Z,53.59
2022-08-18T18:05:01.462Z,53.57
2022-08-18T18:07:39.152Z,53.97
2022-08-18T18:10:08.909Z,54.59
2022-08-18T18:12:37.095Z,54.85
2022-08-18T18:15:11.800Z,55.15
2022-08-18T18:17:41.159Z,55.08
2022-08-18T18:20:16.128Z,54.57
2022-08-18T18:22:43.745Z,54.90
2022-08-18T18:25:12.784Z,54.53
2022-08-18T18:27:43.444Z,54.71
2022-08-18T18:30:27.766Z,55.19
2022-08-18T18:33:03.267Z,55.27
2022-08-18T18:35:54.587Z,56.21
2022-08-18T18:38:37.848Z,56.25
2022-08-18T18:41:21.347Z,56.24
2022-08-18T18:43:51.096Z,56.86
2022-08-18T18:47:01.658Z,57.80
2022-08-18T18:49:41.595Z,58.29
2022-08-18T18:52:23.930Z,58.53
2022-08-18T18:55:30.081Z,59.13
2022-08-18T18:58:22.531Z,59.76
2022-08-18T19:00:55.838Z,59.86
2022-08-18T19:03:33.095Z,60.28
2022-08-18T19:06:13.453Z,60.58
2022-08-18T19:09:10.858Z,61.24
2022-08-18T19:12:05.221Z,62.21
2022-08-18T19:14:37.952Z,61.87
2022-08-18T19:17:20.361Z,62.50
2022-08-18T19:20:00.275Z,62.28
2022-08-18T19:22:35.841Z,63.70
2022-08-18T19:25:09.010Z,64.42
2022-08-18T19:27:42.566Z,65.18
2022-08-18T19:30:14.426Z,65.52
2022-08-18T19:32:47.782Z,65.96
2022-08-18T19:35:23.241Z,66.87
2022-08-18T19:38:07.752Z,67.67
2022-08-18T19:41:10.919Z,69.23
2022-08-18T19:44:04.514Z,69.43
2022-08-18T19:46:34.784Z,69.77
2022-08-18T19:49:27.734Z,70.28
2022-08-18T19:52:01.541Z,70.50
2022-08-18T19:55:00.313Z,72.60
2022-08-18T19:57:49.485Z,72.51
2022-08-18T20:00:16.020Z,73.12
2022-08-18T20:03:10.198Z,74.28
2022-08-18T20:06:30.190Z,74.93
2022-08-18T20:09:31.504Z,75.67
2022-08-18T20:12:12.128Z,76.67
2022-08-18T20:14:41.671Z,75.63
2022-08-18T20:17:22.933Z,78.39
2022-08-18T20:19:52.264Z,77.40
2022-08-18T20:22:24.852Z,79.05
2022-08-18T20:25:17.667Z,80.21
2022-08-18T20:27:50.927Z,80.11
2022-08-18T20:30:20.471Z,80.36
2022-08-18T20:33:29.062Z,81.66
2022-08-18T20:36:26.036Z,82.01
2022-08-18T20:38:55.247Z,82.56
2022-08-18T20:41:34.051Z,84.53
2022-08-18T20:44:36.602Z,84.49
2022-08-18T20:47:41.963Z,85.15
2022-08-18T20:50:31.684Z,85.58
2022-08-18T20:53:49.970Z,86.90
2022-08-18T20:56:43.442Z,86.33
2022-08-18T20:59:25.702Z,87.25
2022-08-18T21:01:57.168Z,88.68
2022-08-18T21:05:00.682Z,90.65
2022-08-18T21:07:38.063Z,89.78
2022-08-18T21:10:22.236Z,91.79
2022-08-18T21:12:53.127Z,91.09
2022-08-18T21:15:21.918Z,92.14
2022-08-18T21:18:00.621Z,92.60
2022-08-18T21:20:28.334Z,93.06
2022-08-18T21:23:11.409Z,94.07
2022-08-18T21:25:52.584Z,94.53
2022-08-18T21:28:21.581Z,94.59
2022-08-18T21:31:42.438Z,96.40
2022-08-18T21:34:33.278Z,94.59
2022-08-18T21:37:06.340Z,94.58
2022-08-18T21:39:32.936Z,95.73
2022-08-18T21:41:59.547Z,95.36
2022-08-18T21:44:41.816Z,95.59
2022-08-18T21:47:17.611Z,98.64
2022-08-18T21:50:08.248Z,100.00
2022-08-18T21:52:37.174Z,99.85
2022-08-18T21:55:12.302Z,100.00
2022-08-18T21:58:02.390Z,100.00
2022-08-18T22:00:38.629Z,100.00
2022-08-18T22:03:26.070Z,100.00
2022-08-18T22:06:17.491Z,100.00
2022-08-18T22:08:49.903Z,100.00
2022-08-18T22:12:01.751Z,100.00
2022-08-18T22:14:55.123Z,100.00
2022-08-18T22:17:25.128Z,100.00
2022-08-18T22:19:51.846Z,100.00
2022-08-18T22:22:39.151Z,100.00
2022-08-18T22:25:06.365Z,100.00
2022-08-18T22:27:33.209Z,100.00
2022-08-18T22:30:04.043Z,100.00
2022-08-18T22:32:36.327Z,100.00
2022-08-18T22:35:05.121Z,100.00
2022-08-18T22:37:39.995Z,100.00
2022-08-18T22:40:10.881Z,100.00
2022-08-18T22:42:38.003Z,100.00
2022-08-18T22:45:09.311Z,100.00
2022-08-18T22:47:42.935Z,100.00
2022-08-18T22:50:11.500Z,100.00
2022-08-18T22:52:42.360Z,100.00
2022-08-18T22:55:12.988Z,100.00
2022-08-18T22:57:40.983Z,100.00
2022-08-18T23:00:14.376Z,100.00
2022-08-18T23:02:41.953Z,100.00
2022-08-18T23:05:10.128Z,100.00
2022-08-18T23:07:37.038Z,100.00
2022-08-18T23:10:13.779Z,100.00
2022-08-18T23:12:43.027Z,100.00
2022-08-18T23:15:13.341Z,100.00
2022-08-18T23:17:41.117Z,100.00
2022-08-18T23:20:12.496Z,100.00
2022-08-18T23:22:45.469Z,100.00
2022-08-18T23:25:13.293Z,100.00
2022-08-18T23:27:40.871Z,100.00
2022-08-18T23:30:08.035Z,100.00
2022-08-18T23:32:34.603Z,100.00
2022-08-18T23:35:01.879Z,100.00
2022-08-18T23:37:28.593Z,100.00
2022-08-18T23:39:56.019Z,100.00
2022-08-18T23:42:22.977Z,100.00
2022-08-18T23:44:50.379Z,100.00
2022-08-18T23:47:20.781Z,100.00
2022-08-18T23:49:47.637Z,100.00
2022-08-18T23:52:14.138Z,100.00
2022-08-18T23:54:40.715Z,100.00
2022-08-18T23:57:07.309Z,100.00
2022-08-18T23:59:33.832Z,100.00
